sensor_id;sensor_type;location;lat;lon;timestamp;P1;durP1;ratioP1;P2;durP2;ratioP2
58412;SDS011;44209;52.952;6.790;2023-02-05T00:02:15;18.07;;;11.50;;
58412;SDS011;44209;52.952;6.790;2023-02-05T00:04:41;14.17;;;11.10;;
58412;SDS011;44209;52.952;6.790;2023-02-05T00:07:07;15.37;;;10.77;;
58412;SDS011;44209;52.952;6.790;2023-02-05T00:09:33;14.27;;;10.97;;
58412;SDS011;44209;52.952;6.790;2023-02-05T00:12:00;14.40;;;10.67;;
58412;SDS011;44209;52.952;6.790;2023-02-05T00:14:26;15.20;;;10.93;;
58412;SDS011;44209;52.952;6.790;2023-02-05T00:16:52;13.20;;;10.60;;
58412;SDS011;44209;52.952;6.790;2023-02-05T00:19:18;14.67;;;11.40;;
58412;SDS011;44209;52.952;6.790;2023-02-05T00:21:43;13.57;;;11.13;;
58412;SDS011;44209;52.952;6.790;2023-02-05T00:24:10;15.23;;;10.77;;
58412;SDS011;44209;52.952;6.790;2023-02-05T00:26:36;13.80;;;10.57;;
58412;SDS011;44209;52.952;6.790;2023-02-05T00:29:02;13.20;;;10.67;;
58412;SDS011;44209;52.952;6.790;2023-02-05T00:31:29;14.90;;;11.10;;
58412;SDS011;44209;52.952;6.790;2023-02-05T00:33:55;13.03;;;10.40;;
58412;SDS011;44209;52.952;6.790;2023-02-05T00:36:20;14.87;;;11.03;;
58412;SDS011;44209;52.952;6.790;2023-02-05T00:38:47;13.47;;;10.27;;
58412;SDS011;44209;52.952;6.790;2023-02-05T00:41:13;13.83;;;11.20;;
58412;SDS011;44209;52.952;6.790;2023-02-05T00:43:39;17.03;;;11.13;;
58412;SDS011;44209;52.952;6.790;2023-02-05T00:46:06;16.23;;;11.50;;
58412;SDS011;44209;52.952;6.790;2023-02-05T00:48:32;15.17;;;11.13;;
58412;SDS011;44209;52.952;6.790;2023-02-05T00:50:58;16.77;;;11.93;;
58412;SDS011;44209;52.952;6.790;2023-02-05T00:53:24;16.30;;;11.77;;
58412;SDS011;44209;52.952;6.790;2023-02-05T00:55:50;16.57;;;11.33;;
58412;SDS011;44209;52.952;6.790;2023-02-05T00:58:16;16.50;;;11.90;;
58412;SDS011;44209;52.952;6.790;2023-02-05T01:00:42;16.17;;;11.77;;
58412;SDS011;44209;52.952;6.790;2023-02-05T01:03:08;18.80;;;11.70;;
58412;SDS011;44209;52.952;6.790;2023-02-05T01:05:34;17.20;;;12.03;;
58412;SDS011;44209;52.952;6.790;2023-02-05T01:08:01;18.93;;;12.03;;
58412;SDS011;44209;52.952;6.790;2023-02-05T01:10:27;14.63;;;11.93;;
58412;SDS011;44209;52.952;6.790;2023-02-05T01:12:53;19.07;;;12.73;;
58412;SDS011;44209;52.952;6.790;2023-02-05T01:15:19;19.50;;;12.40;;
58412;SDS011;44209;52.952;6.790;2023-02-05T01:17:45;17.30;;;12.60;;
58412;SDS011;44209;52.952;6.790;2023-02-05T01:20:11;16.10;;;12.03;;
58412;SDS011;44209;52.952;6.790;2023-02-05T01:22:37;18.83;;;12.60;;
58412;SDS011;44209;52.952;6.790;2023-02-05T01:25:03;18.97;;;12.03;;
58412;SDS011;44209;52.952;6.790;2023-02-05T01:27:31;16.13;;;12.03;;
58412;SDS011;44209;52.952;6.790;2023-02-05T01:29:57;18.20;;;13.00;;
58412;SDS011;44209;52.952;6.790;2023-02-05T01:32:23;17.97;;;13.30;;
58412;SDS011;44209;52.952;6.790;2023-02-05T01:34:49;20.57;;;13.23;;
58412;SDS011;44209;52.952;6.790;2023-02-05T01:37:15;20.13;;;13.40;;
58412;SDS011;44209;52.952;6.790;2023-02-05T01:39:41;19.80;;;12.27;;
58412;SDS011;44209;52.952;6.790;2023-02-05T01:42:14;20.80;;;13.10;;
58412;SDS011;44209;52.952;6.790;2023-02-05T01:45:38;17.57;;;14.07;;
58412;SDS011;44209;52.952;6.790;2023-02-05T01:47:51;20.00;;;13.07;;
58412;SDS011;44209;52.952;6.790;2023-02-05T01:50:26;19.60;;;13.03;;
58412;SDS011;44209;52.952;6.790;2023-02-05T01:52:53;18.15;;;13.32;;
58412;SDS011;44209;52.952;6.790;2023-02-05T01:55:21;18.63;;;13.63;;
58412;SDS011;44209;52.952;6.790;2023-02-05T01:57:47;20.57;;;13.93;;
58412;SDS011;44209;52.952;6.790;2023-02-05T02:00:14;20.90;;;13.77;;
58412;SDS011;44209;52.952;6.790;2023-02-05T02:02:40;20.97;;;14.50;;
58412;SDS011;44209;52.952;6.790;2023-02-05T02:05:08;21.07;;;13.47;;
58412;SDS011;44209;52.952;6.790;2023-02-05T02:07:38;19.60;;;14.57;;
58412;SDS011;44209;52.952;6.790;2023-02-05T02:10:05;21.40;;;14.57;;
58412;SDS011;44209;52.952;6.790;2023-02-05T02:12:34;24.17;;;13.83;;
58412;SDS011;44209;52.952;6.790;2023-02-05T02:15:03;21.47;;;14.60;;
58412;SDS011;44209;52.952;6.790;2023-02-05T02:17:34;23.63;;;14.87;;
58412;SDS011;44209;52.952;6.790;2023-02-05T02:20:08;27.80;;;16.37;;
58412;SDS011;44209;52.952;6.790;2023-02-05T02:22:47;23.50;;;14.60;;
58412;SDS011;44209;52.952;6.790;2023-02-05T02:35:40;24.03;;;15.93;;
58412;SDS011;44209;52.952;6.790;2023-02-05T02:38:16;23.37;;;15.63;;
58412;SDS011;44209;52.952;6.790;2023-02-05T02:40:52;30.60;;;17.13;;
58412;SDS011;44209;52.952;6.790;2023-02-05T02:46:03;24.13;;;16.63;;
58412;SDS011;44209;52.952;6.790;2023-02-05T02:48:33;27.87;;;17.37;;
58412;SDS011;44209;52.952;6.790;2023-02-05T02:51:02;31.27;;;18.10;;
58412;SDS011;44209;52.952;6.790;2023-02-05T02:53:35;29.37;;;18.63;;
58412;SDS011;44209;52.952;6.790;2023-02-05T02:56:05;30.00;;;18.63;;
58412;SDS011;44209;52.952;6.790;2023-02-05T02:58:36;29.90;;;18.23;;
58412;SDS011;44209;52.952;6.790;2023-02-05T03:03:48;31.40;;;19.03;;
58412;SDS011;44209;52.952;6.790;2023-02-05T03:06:24;29.10;;;19.23;;
58412;SDS011;44209;52.952;6.790;2023-02-05T03:08:52;28.70;;;18.53;;
58412;SDS011;44209;52.952;6.790;2023-02-05T03:11:21;29.37;;;18.27;;
58412;SDS011;44209;52.952;6.790;2023-02-05T03:13:48;35.90;;;19.90;;
58412;SDS011;44209;52.952;6.790;2023-02-05T03:16:14;35.40;;;20.53;;
58412;SDS011;44209;52.952;6.790;2023-02-05T03:18:41;38.33;;;19.57;;
58412;SDS011;44209;52.952;6.790;2023-02-05T03:21:08;38.47;;;20.23;;
58412;SDS011;44209;52.952;6.790;2023-02-05T03:23:42;36.27;;;21.80;;
58412;SDS011;44209;52.952;6.790;2023-02-05T03:28:59;38.53;;;20.97;;
58412;SDS011;44209;52.952;6.790;2023-02-05T03:44:49;45.80;;;23.57;;
58412;SDS011;44209;52.952;6.790;2023-02-05T03:52:31;36.93;;;21.77;;
58412;SDS011;44209;52.952;6.790;2023-02-05T03:55:10;37.10;;;21.60;;
58412;SDS011;44209;52.952;6.790;2023-02-05T04:00:51;37.17;;;20.90;;
58412;SDS011;44209;52.952;6.790;2023-02-05T04:03:17;41.93;;;25.07;;
58412;SDS011;44209;52.952;6.790;2023-02-05T04:05:43;37.20;;;21.53;;
58412;SDS011;44209;52.952;6.790;2023-02-05T04:08:09;49.10;;;26.00;;
58412;SDS011;44209;52.952;6.790;2023-02-05T04:10:34;47.17;;;24.67;;
58412;SDS011;44209;52.952;6.790;2023-02-05T04:13:00;50.90;;;25.47;;
58412;SDS011;44209;52.952;6.790;2023-02-05T04:15:26;56.23;;;26.57;;
58412;SDS011;44209;52.952;6.790;2023-02-05T04:17:52;55.17;;;25.77;;
58412;SDS011;44209;52.952;6.790;2023-02-05T04:20:17;50.73;;;26.30;;
58412;SDS011;44209;52.952;6.790;2023-02-05T04:22:43;56.20;;;27.03;;
58412;SDS011;44209;52.952;6.790;2023-02-05T04:25:09;62.43;;;29.27;;
58412;SDS011;44209;52.952;6.790;2023-02-05T04:27:35;67.70;;;28.07;;
58412;SDS011;44209;52.952;6.790;2023-02-05T04:30:00;65.70;;;30.10;;
58412;SDS011;44209;52.952;6.790;2023-02-05T04:32:26;69.23;;;28.57;;
58412;SDS011;44209;52.952;6.790;2023-02-05T04:34:52;58.93;;;27.93;;
58412;SDS011;44209;52.952;6.790;2023-02-05T04:37:18;66.87;;;30.03;;
58412;SDS011;44209;52.952;6.790;2023-02-05T04:39:44;62.87;;;28.73;;
58412;SDS011;44209;52.952;6.790;2023-02-05T04:42:11;65.60;;;28.70;;
58412;SDS011;44209;52.952;6.790;2023-02-05T04:44:37;63.67;;;27.73;;
58412;SDS011;44209;52.952;6.790;2023-02-05T04:47:02;65.47;;;29.60;;
58412;SDS011;44209;52.952;6.790;2023-02-05T04:49:30;62.80;;;27.77;;
58412;SDS011;44209;52.952;6.790;2023-02-05T04:51:56;61.20;;;26.97;;
58412;SDS011;44209;52.952;6.790;2023-02-05T04:54:22;55.63;;;27.93;;
58412;SDS011;44209;52.952;6.790;2023-02-05T04:56:48;52.43;;;26.53;;
58412;SDS011;44209;52.952;6.790;2023-02-05T04:59:14;66.53;;;30.30;;
58412;SDS011;44209;52.952;6.790;2023-02-05T05:01:39;72.20;;;29.33;;
58412;SDS011;44209;52.952;6.790;2023-02-05T05:04:05;48.60;;;24.10;;
58412;SDS011;44209;52.952;6.790;2023-02-05T05:06:31;55.60;;;27.87;;
58412;SDS011;44209;52.952;6.790;2023-02-05T05:08:58;67.93;;;29.90;;
58412;SDS011;44209;52.952;6.790;2023-02-05T05:11:23;64.03;;;29.93;;
58412;SDS011;44209;52.952;6.790;2023-02-05T05:13:49;63.93;;;28.17;;
58412;SDS011;44209;52.952;6.790;2023-02-05T05:16:16;60.00;;;29.23;;
58412;SDS011;44209;52.952;6.790;2023-02-05T05:18:42;48.90;;;25.87;;
58412;SDS011;44209;52.952;6.790;2023-02-05T05:21:08;66.40;;;29.90;;
58412;SDS011;44209;52.952;6.790;2023-02-05T05:23:35;63.03;;;30.67;;
58412;SDS011;44209;52.952;6.790;2023-02-05T05:26:04;82.33;;;32.53;;
58412;SDS011;44209;52.952;6.790;2023-02-05T05:28:32;64.73;;;30.43;;
58412;SDS011;44209;52.952;6.790;2023-02-05T05:30:59;68.03;;;30.13;;
58412;SDS011;44209;52.952;6.790;2023-02-05T05:33:30;60.28;;;29.70;;
58412;SDS011;44209;52.952;6.790;2023-02-05T05:35:56;63.37;;;29.63;;
58412;SDS011;44209;52.952;6.790;2023-02-05T05:38:22;63.77;;;28.30;;
58412;SDS011;44209;52.952;6.790;2023-02-05T05:40:47;60.63;;;30.17;;
58412;SDS011;44209;52.952;6.790;2023-02-05T05:43:31;61.03;;;27.47;;
58412;SDS011;44209;52.952;6.790;2023-02-05T05:46:25;73.43;;;30.30;;
58412;SDS011;44209;52.952;6.790;2023-02-05T05:48:51;62.13;;;26.10;;
58412;SDS011;44209;52.952;6.790;2023-02-05T05:51:19;59.33;;;27.30;;
58412;SDS011;44209;52.952;6.790;2023-02-05T05:53:45;53.97;;;25.00;;
58412;SDS011;44209;52.952;6.790;2023-02-05T05:56:11;46.80;;;24.10;;
58412;SDS011;44209;52.952;6.790;2023-02-05T05:58:38;63.30;;;26.60;;
58412;SDS011;44209;52.952;6.790;2023-02-05T06:01:04;51.63;;;23.80;;
58412;SDS011;44209;52.952;6.790;2023-02-05T06:03:31;50.00;;;21.63;;
58412;SDS011;44209;52.952;6.790;2023-02-05T06:06:01;49.17;;;22.83;;
58412;SDS011;44209;52.952;6.790;2023-02-05T06:08:28;39.53;;;18.97;;
58412;SDS011;44209;52.952;6.790;2023-02-05T06:10:54;46.67;;;20.67;;
58412;SDS011;44209;52.952;6.790;2023-02-05T06:13:20;40.73;;;18.23;;
58412;SDS011;44209;52.952;6.790;2023-02-05T06:15:46;30.60;;;15.80;;
58412;SDS011;44209;52.952;6.790;2023-02-05T06:18:13;22.63;;;9.90;;
58412;SDS011;44209;52.952;6.790;2023-02-05T06:20:40;17.60;;;7.67;;
58412;SDS011;44209;52.952;6.790;2023-02-05T06:23:05;14.27;;;6.67;;
58412;SDS011;44209;52.952;6.790;2023-02-05T06:25:31;11.53;;;5.80;;
58412;SDS011;44209;52.952;6.790;2023-02-05T06:27:57;10.30;;;4.87;;
58412;SDS011;44209;52.952;6.790;2023-02-05T06:30:22;10.57;;;2.97;;
58412;SDS011;44209;52.952;6.790;2023-02-05T06:32:48;11.87;;;3.20;;
58412;SDS011;44209;52.952;6.790;2023-02-05T06:35:14;7.50;;;2.20;;
58412;SDS011;44209;52.952;6.790;2023-02-05T06:37:40;8.00;;;2.50;;
58412;SDS011;44209;52.952;6.790;2023-02-05T06:40:06;10.43;;;2.43;;
58412;SDS011;44209;52.952;6.790;2023-02-05T06:42:32;6.87;;;1.97;;
58412;SDS011;44209;52.952;6.790;2023-02-05T06:44:57;8.93;;;2.10;;
58412;SDS011;44209;52.952;6.790;2023-02-05T06:47:23;12.23;;;2.20;;
58412;SDS011;44209;52.952;6.790;2023-02-05T06:49:49;9.00;;;2.20;;
58412;SDS011;44209;52.952;6.790;2023-02-05T06:52:15;9.23;;;1.87;;
58412;SDS011;44209;52.952;6.790;2023-02-05T06:54:40;11.80;;;2.57;;
58412;SDS011;44209;52.952;6.790;2023-02-05T06:57:08;7.30;;;2.00;;
58412;SDS011;44209;52.952;6.790;2023-02-05T06:59:34;9.20;;;1.90;;
58412;SDS011;44209;52.952;6.790;2023-02-05T07:02:00;8.27;;;1.70;;
58412;SDS011;44209;52.952;6.790;2023-02-05T07:04:27;9.73;;;2.00;;
58412;SDS011;44209;52.952;6.790;2023-02-05T07:06:55;16.13;;;2.30;;
58412;SDS011;44209;52.952;6.790;2023-02-05T07:09:21;7.07;;;2.17;;
58412;SDS011;44209;52.952;6.790;2023-02-05T07:11:47;10.80;;;2.20;;
58412;SDS011;44209;52.952;6.790;2023-02-05T07:14:12;13.73;;;2.13;;
58412;SDS011;44209;52.952;6.790;2023-02-05T07:16:38;11.80;;;2.13;;
58412;SDS011;44209;52.952;6.790;2023-02-05T07:19:04;10.90;;;1.73;;
58412;SDS011;44209;52.952;6.790;2023-02-05T07:21:30;11.13;;;2.03;;
58412;SDS011;44209;52.952;6.790;2023-02-05T07:23:56;6.23;;;1.83;;
58412;SDS011;44209;52.952;6.790;2023-02-05T07:26:22;9.40;;;1.67;;
58412;SDS011;44209;52.952;6.790;2023-02-05T07:28:48;9.33;;;1.87;;
58412;SDS011;44209;52.952;6.790;2023-02-05T07:31:14;10.53;;;2.13;;
58412;SDS011;44209;52.952;6.790;2023-02-05T07:33:45;12.60;;;2.23;;
58412;SDS011;44209;52.952;6.790;2023-02-05T07:36:12;10.90;;;1.70;;
58412;SDS011;44209;52.952;6.790;2023-02-05T07:38:41;12.73;;;2.67;;
58412;SDS011;44209;52.952;6.790;2023-02-05T07:41:09;9.57;;;2.20;;
58412;SDS011;44209;52.952;6.790;2023-02-05T07:43:36;11.27;;;2.37;;
58412;SDS011;44209;52.952;6.790;2023-02-05T07:46:04;9.50;;;2.10;;
58412;SDS011;44209;52.952;6.790;2023-02-05T07:48:32;5.20;;;1.40;;
58412;SDS011;44209;52.952;6.790;2023-02-05T07:50:59;6.37;;;1.30;;
58412;SDS011;44209;52.952;6.790;2023-02-05T07:53:25;6.53;;;1.73;;
58412;SDS011;44209;52.952;6.790;2023-02-05T07:55:51;6.90;;;1.30;;
58412;SDS011;44209;52.952;6.790;2023-02-05T07:58:17;5.50;;;1.30;;
58412;SDS011;44209;52.952;6.790;2023-02-05T08:00:43;8.07;;;1.93;;
58412;SDS011;44209;52.952;6.790;2023-02-05T08:03:09;9.77;;;1.80;;
58412;SDS011;44209;52.952;6.790;2023-02-05T08:05:35;7.33;;;1.90;;
58412;SDS011;44209;52.952;6.790;2023-02-05T08:08:02;10.30;;;2.00;;
58412;SDS011;44209;52.952;6.790;2023-02-05T08:10:28;7.63;;;1.90;;
58412;SDS011;44209;52.952;6.790;2023-02-05T08:12:54;9.17;;;1.70;;
58412;SDS011;44209;52.952;6.790;2023-02-05T08:15:20;8.03;;;2.00;;
58412;SDS011;44209;52.952;6.790;2023-02-05T08:17:46;9.73;;;2.17;;
58412;SDS011;44209;52.952;6.790;2023-02-05T08:20:12;10.90;;;2.07;;
58412;SDS011;44209;52.952;6.790;2023-02-05T08:22:38;15.73;;;2.17;;
58412;SDS011;44209;52.952;6.790;2023-02-05T08:25:06;9.53;;;2.33;;
58412;SDS011;44209;52.952;6.790;2023-02-05T08:27:37;16.92;;;2.75;;
58412;SDS011;44209;52.952;6.790;2023-02-05T08:30:05;11.37;;;2.33;;
58412;SDS011;44209;52.952;6.790;2023-02-05T08:32:32;8.40;;;2.23;;
58412;SDS011;44209;52.952;6.790;2023-02-05T08:34:58;8.20;;;2.53;;
58412;SDS011;44209;52.952;6.790;2023-02-05T08:37:24;8.00;;;2.20;;
58412;SDS011;44209;52.952;6.790;2023-02-05T08:39:51;10.80;;;2.20;;
58412;SDS011;44209;52.952;6.790;2023-02-05T08:42:16;11.30;;;2.30;;
58412;SDS011;44209;52.952;6.790;2023-02-05T08:44:46;10.60;;;2.43;;
58412;SDS011;44209;52.952;6.790;2023-02-05T08:47:19;9.93;;;2.23;;
58412;SDS011;44209;52.952;6.790;2023-02-05T08:49:46;12.67;;;2.73;;
58412;SDS011;44209;52.952;6.790;2023-02-05T08:52:12;16.17;;;3.80;;
58412;SDS011;44209;52.952;6.790;2023-02-05T08:54:38;8.77;;;2.07;;
58412;SDS011;44209;52.952;6.790;2023-02-05T08:57:06;17.10;;;3.80;;
58412;SDS011;44209;52.952;6.790;2023-02-05T08:59:43;12.97;;;3.07;;
58412;SDS011;44209;52.952;6.790;2023-02-05T09:02:18;17.93;;;3.63;;
58412;SDS011;44209;52.952;6.790;2023-02-05T09:04:44;16.60;;;2.63;;
58412;SDS011;44209;52.952;6.790;2023-02-05T09:07:09;18.27;;;3.83;;
58412;SDS011;44209;52.952;6.790;2023-02-05T09:09:35;14.43;;;3.50;;
58412;SDS011;44209;52.952;6.790;2023-02-05T09:12:02;16.30;;;3.23;;
58412;SDS011;44209;52.952;6.790;2023-02-05T09:14:28;12.23;;;2.80;;
58412;SDS011;44209;52.952;6.790;2023-02-05T09:17:07;15.48;;;3.33;;
58412;SDS011;44209;52.952;6.790;2023-02-05T09:19:39;12.67;;;2.30;;
58412;SDS011;44209;52.952;6.790;2023-02-05T09:22:06;9.53;;;2.33;;
58412;SDS011;44209;52.952;6.790;2023-02-05T09:24:32;11.87;;;3.03;;
58412;SDS011;44209;52.952;6.790;2023-02-05T09:26:58;14.30;;;2.50;;
58412;SDS011;44209;52.952;6.790;2023-02-05T09:29:24;8.53;;;2.40;;
58412;SDS011;44209;52.952;6.790;2023-02-05T09:31:53;14.70;;;2.90;;
58412;SDS011;44209;52.952;6.790;2023-02-05T09:34:19;9.13;;;1.90;;
58412;SDS011;44209;52.952;6.790;2023-02-05T09:36:45;13.80;;;2.40;;
58412;SDS011;44209;52.952;6.790;2023-02-05T09:39:10;10.53;;;2.23;;
58412;SDS011;44209;52.952;6.790;2023-02-05T09:44:15;6.77;;;1.80;;
58412;SDS011;44209;52.952;6.790;2023-02-05T09:49:41;11.57;;;2.30;;
58412;SDS011;44209;52.952;6.790;2023-02-05T09:52:21;7.77;;;2.07;;
58412;SDS011;44209;52.952;6.790;2023-02-05T09:55:18;7.37;;;1.83;;
58412;SDS011;44209;52.952;6.790;2023-02-05T09:57:47;5.43;;;1.53;;
58412;SDS011;44209;52.952;6.790;2023-02-05T10:00:19;6.70;;;1.80;;
58412;SDS011;44209;52.952;6.790;2023-02-05T10:03:12;10.77;;;1.90;;
58412;SDS011;44209;52.952;6.790;2023-02-05T10:08:32;11.47;;;2.17;;
58412;SDS011;44209;52.952;6.790;2023-02-05T10:19:58;11.60;;;2.20;;
58412;SDS011;44209;52.952;6.790;2023-02-05T10:31:09;17.20;;;3.35;;
58412;SDS011;44209;52.952;6.790;2023-02-05T10:37:15;16.30;;;3.47;;
58412;SDS011;44209;52.952;6.790;2023-02-05T10:39:44;12.77;;;3.00;;
58412;SDS011;44209;52.952;6.790;2023-02-05T10:44:48;12.60;;;3.23;;
58412;SDS011;44209;52.952;6.790;2023-02-05T10:47:18;19.17;;;3.97;;
58412;SDS011;44209;52.952;6.790;2023-02-05T10:50:05;19.70;;;3.93;;
58412;SDS011;44209;52.952;6.790;2023-02-05T10:52:38;15.57;;;3.80;;
58412;SDS011;44209;52.952;6.790;2023-02-05T10:55:10;19.30;;;4.03;;
58412;SDS011;44209;52.952;6.790;2023-02-05T10:57:38;21.37;;;3.77;;
58412;SDS011;44209;52.952;6.790;2023-02-05T11:00:05;22.87;;;4.10;;
58412;SDS011;44209;52.952;6.790;2023-02-05T11:02:38;16.93;;;4.30;;
58412;SDS011;44209;52.952;6.790;2023-02-05T11:05:12;18.63;;;3.73;;
58412;SDS011;44209;52.952;6.790;2023-02-05T11:07:49;18.83;;;3.80;;
58412;SDS011;44209;52.952;6.790;2023-02-05T11:10:27;16.00;;;3.60;;
58412;SDS011;44209;52.952;6.790;2023-02-05T11:13:00;15.93;;;3.57;;
58412;SDS011;44209;52.952;6.790;2023-02-05T11:15:38;15.60;;;3.40;;
58412;SDS011;44209;52.952;6.790;2023-02-05T11:18:44;22.33;;;4.00;;
58412;SDS011;44209;52.952;6.790;2023-02-05T11:21:19;15.07;;;3.63;;
58412;SDS011;44209;52.952;6.790;2023-02-05T11:23:52;18.83;;;3.90;;
58412;SDS011;44209;52.952;6.790;2023-02-05T11:26:25;18.70;;;4.00;;
58412;SDS011;44209;52.952;6.790;2023-02-05T11:28:53;19.48;;;4.22;;
58412;SDS011;44209;52.952;6.790;2023-02-05T11:33:49;23.07;;;4.27;;
58412;SDS011;44209;52.952;6.790;2023-02-05T11:36:16;19.33;;;3.97;;
58412;SDS011;44209;52.952;6.790;2023-02-05T11:38:52;27.67;;;4.67;;
58412;SDS011;44209;52.952;6.790;2023-02-05T11:41:28;20.53;;;4.23;;
58412;SDS011;44209;52.952;6.790;2023-02-05T11:43:59;18.47;;;4.30;;
58412;SDS011;44209;52.952;6.790;2023-02-05T11:46:27;18.47;;;4.90;;
58412;SDS011;44209;52.952;6.790;2023-02-05T11:48:59;22.90;;;4.45;;
58412;SDS011;44209;52.952;6.790;2023-02-05T11:53:59;23.67;;;4.63;;
58412;SDS011;44209;52.952;6.790;2023-02-05T11:56:28;24.27;;;5.53;;
58412;SDS011;44209;52.952;6.790;2023-02-05T12:01:30;16.80;;;4.40;;
58412;SDS011;44209;52.952;6.790;2023-02-05T12:03:59;21.67;;;4.83;;
58412;SDS011;44209;52.952;6.790;2023-02-05T12:06:30;25.77;;;5.27;;
58412;SDS011;44209;52.952;6.790;2023-02-05T12:09:04;26.77;;;5.37;;
58412;SDS011;44209;52.952;6.790;2023-02-05T12:17:23;26.53;;;5.43;;
58412;SDS011;44209;52.952;6.790;2023-02-05T12:22:55;23.17;;;5.17;;
58412;SDS011;44209;52.952;6.790;2023-02-05T12:25:38;25.30;;;5.40;;
58412;SDS011;44209;52.952;6.790;2023-02-05T12:34:12;24.60;;;5.67;;
58412;SDS011;44209;52.952;6.790;2023-02-05T12:39:51;22.93;;;5.27;;
58412;SDS011;44209;52.952;6.790;2023-02-05T12:42:28;21.93;;;4.67;;
58412;SDS011;44209;52.952;6.790;2023-02-05T12:45:23;20.55;;;4.72;;
58412;SDS011;44209;52.952;6.790;2023-02-05T12:47:59;23.35;;;4.72;;
58412;SDS011;44209;52.952;6.790;2023-02-05T12:58:53;24.23;;;5.07;;
58412;SDS011;44209;52.952;6.790;2023-02-05T13:01:32;22.63;;;4.47;;
58412;SDS011;44209;52.952;6.790;2023-02-05T13:04:05;20.87;;;4.77;;
58412;SDS011;44209;52.952;6.790;2023-02-05T13:06:42;17.20;;;4.20;;
58412;SDS011;44209;52.952;6.790;2023-02-05T13:12:09;23.58;;;5.18;;
58412;SDS011;44209;52.952;6.790;2023-02-05T13:14:42;21.63;;;4.77;;
58412;SDS011;44209;52.952;6.790;2023-02-05T13:17:25;21.87;;;5.70;;
58412;SDS011;44209;52.952;6.790;2023-02-05T13:19:55;21.63;;;6.10;;
58412;SDS011;44209;52.952;6.790;2023-02-05T13:22:35;23.50;;;5.60;;
58412;SDS011;44209;52.952;6.790;2023-02-05T13:28:33;20.40;;;5.03;;
58412;SDS011;44209;52.952;6.790;2023-02-05T13:31:08;21.80;;;4.70;;
58412;SDS011;44209;52.952;6.790;2023-02-05T13:33:38;21.60;;;4.90;;
58412;SDS011;44209;52.952;6.790;2023-02-05T13:47:17;21.40;;;4.87;;
58412;SDS011;44209;52.952;6.790;2023-02-05T13:49:57;22.43;;;4.73;;
58412;SDS011;44209;52.952;6.790;2023-02-05T13:58:08;19.43;;;4.70;;
58412;SDS011;44209;52.952;6.790;2023-02-05T14:00:57;17.52;;;3.63;;
58412;SDS011;44209;52.952;6.790;2023-02-05T14:11:23;18.03;;;4.70;;
58412;SDS011;44209;52.952;6.790;2023-02-05T14:16:49;19.47;;;4.63;;
58412;SDS011;44209;52.952;6.790;2023-02-05T14:19:22;22.37;;;5.03;;
58412;SDS011;44209;52.952;6.790;2023-02-05T14:22:09;19.37;;;4.80;;
58412;SDS011;44209;52.952;6.790;2023-02-05T14:24:39;26.67;;;5.77;;
58412;SDS011;44209;52.952;6.790;2023-02-05T14:35:34;27.77;;;6.57;;
58412;SDS011;44209;52.952;6.790;2023-02-05T14:38:23;21.47;;;5.50;;
58412;SDS011;44209;52.952;6.790;2023-02-05T14:43:31;25.80;;;6.07;;
58412;SDS011;44209;52.952;6.790;2023-02-05T14:46:03;25.53;;;6.40;;
58412;SDS011;44209;52.952;6.790;2023-02-05T14:48:35;34.70;;;6.30;;
58412;SDS011;44209;52.952;6.790;2023-02-05T14:51:07;31.63;;;7.00;;
58412;SDS011;44209;52.952;6.790;2023-02-05T14:53:45;24.83;;;5.90;;
58412;SDS011;44209;52.952;6.790;2023-02-05T14:56:27;32.57;;;8.00;;
58412;SDS011;44209;52.952;6.790;2023-02-05T14:59:02;26.63;;;5.50;;
58412;SDS011;44209;52.952;6.790;2023-02-05T15:01:44;29.97;;;6.63;;
58412;SDS011;44209;52.952;6.790;2023-02-05T15:04:18;32.30;;;6.23;;
58412;SDS011;44209;52.952;6.790;2023-02-05T15:06:54;32.50;;;6.53;;
58412;SDS011;44209;52.952;6.790;2023-02-05T15:09:41;27.40;;;5.80;;
58412;SDS011;44209;52.952;6.790;2023-02-05T15:12:32;25.77;;;5.43;;
58412;SDS011;44209;52.952;6.790;2023-02-05T15:15:30;25.13;;;6.07;;
58412;SDS011;44209;52.952;6.790;2023-02-05T15:18:09;27.87;;;6.70;;
58412;SDS011;44209;52.952;6.790;2023-02-05T15:20:45;24.67;;;6.43;;
58412;SDS011;44209;52.952;6.790;2023-02-05T15:23:17;33.07;;;7.00;;
58412;SDS011;44209;52.952;6.790;2023-02-05T15:33:58;24.43;;;6.37;;
58412;SDS011;44209;52.952;6.790;2023-02-05T15:42:37;34.70;;;6.05;;
58412;SDS011;44209;52.952;6.790;2023-02-05T15:45:15;32.60;;;5.90;;
58412;SDS011;44209;52.952;6.790;2023-02-05T15:47:42;26.97;;;6.47;;
58412;SDS011;44209;52.952;6.790;2023-02-05T15:50:09;26.17;;;6.27;;
58412;SDS011;44209;52.952;6.790;2023-02-05T15:52:38;34.77;;;6.20;;
58412;SDS011;44209;52.952;6.790;2023-02-05T15:55:10;35.67;;;7.83;;
58412;SDS011;44209;52.952;6.790;2023-02-05T15:57:40;28.57;;;6.50;;
58412;SDS011;44209;52.952;6.790;2023-02-05T16:00:09;28.00;;;6.40;;
58412;SDS011;44209;52.952;6.790;2023-02-05T16:02:43;33.83;;;7.63;;
58412;SDS011;44209;52.952;6.790;2023-02-05T16:05:22;28.10;;;6.83;;
58412;SDS011;44209;52.952;6.790;2023-02-05T16:07:50;34.83;;;6.80;;
58412;SDS011;44209;52.952;6.790;2023-02-05T16:10:23;35.60;;;7.27;;
58412;SDS011;44209;52.952;6.790;2023-02-05T16:15:22;29.85;;;6.15;;
58412;SDS011;44209;52.952;6.790;2023-02-05T16:17:52;28.77;;;6.87;;
58412;SDS011;44209;52.952;6.790;2023-02-05T16:20:32;31.50;;;6.93;;
58412;SDS011;44209;52.952;6.790;2023-02-05T16:23:03;30.17;;;6.73;;
58412;SDS011;44209;52.952;6.790;2023-02-05T16:28:25;26.27;;;6.40;;
58412;SDS011;44209;52.952;6.790;2023-02-05T16:30:57;38.80;;;9.13;;
58412;SDS011;44209;52.952;6.790;2023-02-05T16:33:27;28.70;;;6.23;;
58412;SDS011;44209;52.952;6.790;2023-02-05T16:38:23;32.93;;;6.83;;
58412;SDS011;44209;52.952;6.790;2023-02-05T16:40:54;32.23;;;7.00;;
58412;SDS011;44209;52.952;6.790;2023-02-05T16:43:30;36.37;;;7.17;;
58412;SDS011;44209;52.952;6.790;2023-02-05T16:48:37;34.50;;;6.35;;
58412;SDS011;44209;52.952;6.790;2023-02-05T16:53:56;39.97;;;6.80;;
58412;SDS011;44209;52.952;6.790;2023-02-05T16:56:30;25.77;;;6.13;;
58412;SDS011;44209;52.952;6.790;2023-02-05T16:59:01;27.30;;;6.87;;
58412;SDS011;44209;52.952;6.790;2023-02-05T17:01:35;37.43;;;6.93;;
58412;SDS011;44209;52.952;6.790;2023-02-05T17:04:04;32.23;;;7.00;;
58412;SDS011;44209;52.952;6.790;2023-02-05T17:06:34;33.03;;;7.00;;
58412;SDS011;44209;52.952;6.790;2023-02-05T17:09:00;35.90;;;6.97;;
58412;SDS011;44209;52.952;6.790;2023-02-05T17:14:12;30.30;;;7.83;;
58412;SDS011;44209;52.952;6.790;2023-02-05T17:17:03;32.87;;;7.53;;
58412;SDS011;44209;52.952;6.790;2023-02-05T17:19:41;31.20;;;6.67;;
58412;SDS011;44209;52.952;6.790;2023-02-05T17:24:39;32.72;;;7.45;;
58412;SDS011;44209;52.952;6.790;2023-02-05T17:27:14;26.63;;;6.33;;
58412;SDS011;44209;52.952;6.790;2023-02-05T17:29:42;37.17;;;6.70;;
58412;SDS011;44209;52.952;6.790;2023-02-05T17:32:14;29.63;;;6.97;;
58412;SDS011;44209;52.952;6.790;2023-02-05T17:34:41;29.70;;;6.73;;
58412;SDS011;44209;52.952;6.790;2023-02-05T17:37:08;28.47;;;6.57;;
58412;SDS011;44209;52.952;6.790;2023-02-05T17:39:34;25.57;;;6.43;;
58412;SDS011;44209;52.952;6.790;2023-02-05T17:41:59;32.90;;;7.87;;
58412;SDS011;44209;52.952;6.790;2023-02-05T17:44:28;27.73;;;6.87;;
58412;SDS011;44209;52.952;6.790;2023-02-05T17:46:56;33.47;;;6.93;;
58412;SDS011;44209;52.952;6.790;2023-02-05T17:49:22;30.73;;;7.03;;
58412;SDS011;44209;52.952;6.790;2023-02-05T17:51:48;24.83;;;6.27;;